F/V Fleur Des Vagues — FPEJ — position and weather

sailwx.info

Track history (hours):
 
Tides and Currents Weather Stations Pressure Air Temp Water Temp Dewpoint Dewpoint Depression Visibility Wind Speed Wind Dir Waves Ship Positions

F/V Fleur Des Vagues

Last reported at 2014-Oct-31 17:33 UTC. Time now 2014-Oct-31 17:58 UTC.
Position N 46°30' W 001°47'.

Length 16 m.

Type: Fishing. MMSI: 227893000.

Date/timePositionNaut miles runAvg speedWind from/ knotsBaromVisibWave heightAir tempDewpointWater temp
2014-Oct-31 17:33N 46°30' W 001°47'0 0.0
2014-Oct-31 16:33N 46°30' W 001°47'0 0.0
2014-Oct-31 15:34N 46°30' W 001°47'0 0.0
2014-Oct-31 14:33N 46°30' W 001°47'0 0.0
2014-Oct-31 13:33N 46°30' W 001°47'0 0.0
2014-Oct-31 12:33N 46°30' W 001°47'1 0.9
2014-Oct-31 11:34N 46°29' W 001°47'9 8.9
2014-Oct-31 10:33N 46°21' W 001°54'2 2.1
2014-Oct-31 09:33N 46°19' W 001°54'2 1.6
2014-Oct-31 08:34N 46°19' W 001°52'2 2.4
2014-Oct-31 07:32N 46°21' W 001°54'1 1.3
2014-Oct-31 06:33N 46°20' W 001°54'1 0.8
2014-Oct-31 05:31N 46°20' W 001°54'0 0.2
2014-Oct-31 04:33N 46°20' W 001°54'1 0.7
2014-Oct-31 03:33N 46°20' W 001°54'3 3.3
2014-Oct-31 02:33N 46°23' W 001°53'8 8.1
2014-Oct-31 01:33N 46°30' W 001°48'0 0.2
2014-Oct-31 00:33N 46°30' W 001°47'0 0.0
2014-Oct-30 23:33N 46°30' W 001°47'0 0.0
2014-Oct-30 22:33N 46°30' W 001°47'0 0.0
2014-Oct-30 21:33N 46°30' W 001°47'0 0.0
2014-Oct-30 20:33N 46°30' W 001°47'0 0.0
2014-Oct-30 19:33N 46°30' W 001°47'0 0.0
2014-Oct-30 18:33N 46°30' W 001°47'0 0.0
2014-Oct-30 17:33N 46°30' W 001°47'0 0.0
2014-Oct-30 16:33N 46°30' W 001°47'0 0.0
2014-Oct-30 15:33N 46°30' W 001°47'0 0.0
2014-Oct-30 14:33N 46°30' W 001°47'0 0.0
2014-Oct-30 13:33N 46°30' W 001°47'4 3.5
2014-Oct-30 12:33N 46°27' W 001°49'8 7.9
2014-Oct-30 11:34N 46°19' W 001°54'2 1.6
2014-Oct-30 10:33N 46°21' W 001°54'3 2.8
2014-Oct-30 09:33N 46°19' W 001°51'2 1.7
2014-Oct-30 08:33N 46°21' W 001°53'2 2.4
2014-Oct-30 07:33N 46°18' W 001°53'2 1.6
2014-Oct-30 06:33N 46°20' W 001°54'1 1.2
2014-Oct-30 05:33N 46°19' W 001°53'1 0.7
2014-Oct-30 04:31N 46°18' W 001°52'2 1.7
2014-Oct-30 03:33N 46°19' W 001°54'1 1.3
2014-Oct-30 02:33N 46°18' W 001°53'8 8.2
2014-Oct-30 01:33N 46°26' W 001°49'4 3.9
2014-Oct-30 00:33N 46°30' W 001°47'0 0.0
2014-Oct-29 23:34N 46°30' W 001°47'0 0.0
2014-Oct-29 22:34N 46°30' W 001°47'0 0.0
2014-Oct-29 21:34N 46°30' W 001°47'0 0.0
2014-Oct-29 20:33N 46°30' W 001°47'0 0.0
2014-Oct-29 19:33N 46°30' W 001°47'0 0.0
2014-Oct-29 18:33N 46°30' W 001°47'0 0.0
2014-Oct-29 17:33N 46°30' W 001°47'0 0.0
2014-Oct-29 16:33N 46°30' W 001°47'0 0.0
2014-Oct-29 15:33N 46°30' W 001°47'0 0.0
2014-Oct-29 14:33N 46°30' W 001°47'2 1.9
2014-Oct-29 13:33N 46°28' W 001°48'9 9.3
2014-Oct-29 12:33N 46°19' W 001°52'1 1.3
2014-Oct-29 11:33N 46°20' W 001°53'2 1.9
2014-Oct-29 10:33N 46°21' W 001°51'1 0.6
2014-Oct-29 09:32N 46°21' W 001°51'1 0.9
2014-Oct-29 08:33N 46°21' W 001°52'2 2.0
2014-Oct-29 07:33N 46°19' W 001°51'2 2.0
2014-Oct-29 06:34N 46°17' W 001°49'0 0.3
2014-Oct-29 05:33N 46°17' W 001°50'2 2.0
2014-Oct-29 04:33N 46°19' W 001°51'2 1.9
2014-Oct-29 03:33N 46°21' W 001°52'0 0.3
2014-Oct-29 02:33N 46°21' W 001°51'6 5.7
2014-Oct-29 01:33N 46°26' W 001°48'4 3.6
2014-Oct-29 00:33N 46°30' W 001°47'0 0.0
2014-Oct-28 23:33N 46°30' W 001°47'0 0.0
2014-Oct-28 22:33N 46°30' W 001°47'0 0.0
2014-Oct-28 21:33N 46°30' W 001°47'0 0.0
2014-Oct-28 20:33N 46°30' W 001°47'0 0.0
2014-Oct-28 19:33N 46°30' W 001°47'0 0.0
2014-Oct-28 18:33N 46°30' W 001°47'0 0.0
2014-Oct-28 17:33N 46°30' W 001°47'0 0.0
2014-Oct-28 16:33N 46°30' W 001°47'0 0.0
2014-Oct-28 15:33N 46°30' W 001°47'0 0.0
2014-Oct-28 14:33N 46°30' W 001°47'0 0.0
2014-Oct-28 13:33N 46°30' W 001°47'2 1.6
2014-Oct-28 12:33N 46°28' W 001°47'8 8.3
2014-Oct-28 11:34N 46°21' W 001°51'1 1.4
2014-Oct-28 10:33N 46°19' W 001°51'2 2.5
2014-Oct-28 09:32N 46°18' W 001°54'1 1.3
2014-Oct-28 08:34N 46°19' W 001°55'1 0.5
2014-Oct-28 07:32N 46°19' W 001°55'0 0.2
2014-Oct-28 06:33N 46°19' W 001°55'1 1.4
2014-Oct-28 05:33N 46°17' W 001°56'0 0.3
2014-Oct-28 04:33N 46°18' W 001°56'0 0.2
2014-Oct-28 03:33N 46°18' W 001°56'1 1.0
2014-Oct-28 02:33N 46°18' W 001°55'9 8.9
2014-Oct-28 01:33N 46°26' W 001°49'4 4.0
2014-Oct-28 00:33N 46°30' W 001°47'0 0.0
2014-Oct-27 23:33N 46°30' W 001°47'0 0.0
2014-Oct-27 22:33N 46°30' W 001°47'0 0.0
2014-Oct-27 21:33N 46°30' W 001°47'0 0.0
2014-Oct-27 20:33N 46°30' W 001°47'0 0.0
2014-Oct-27 19:33N 46°30' W 001°47'0 0.0
2014-Oct-27 18:34N 46°30' W 001°47'0 0.0
2014-Oct-27 17:33N 46°30' W 001°47'0 0.0
2014-Oct-27 16:34N 46°30' W 001°47'0 0.0
2014-Oct-27 15:34N 46°30' W 001°47'0 0.0
2014-Oct-27 14:33N 46°30' W 001°47'5 4.8
2014-Oct-27 13:33N 46°25' W 001°49'7 6.8
2014-Oct-27 12:30N 46°20' W 001°56'2 1.6
2014-Oct-27 11:28N 46°18' W 001°56'3 3.2
2014-Oct-27 10:33N 46°15' W 001°55'2 1.8
2014-Oct-27 09:33N 46°15' W 001°52'0 0.2
2014-Oct-27 07:33N 46°15' W 001°53'2 1.7
2014-Oct-27 06:34N 46°14' W 001°51'2 1.9
2014-Oct-27 05:33N 46°15' W 001°53'1 1.0
2014-Oct-27 04:33N 46°15' W 001°52'0 0.4
2014-Oct-27 03:32N 46°15' W 001°52'2 2.2
2014-Oct-27 02:33N 46°17' W 001°52'9 8.7
2014-Oct-27 01:33N 46°25' W 001°48'4 4.5
2014-Oct-27 00:34N 46°30' W 001°47'0 0.0
2014-Oct-26 23:33N 46°30' W 001°47'0 0.0
2014-Oct-26 22:34N 46°30' W 001°47'0 0.0
2014-Oct-26 21:33N 46°30' W 001°47'0 0.0
2014-Oct-26 20:33N 46°30' W 001°47'0 0.0
2014-Oct-26 19:34N 46°30' W 001°47'0 0.0
2014-Oct-26 18:33N 46°30' W 001°47'0 0.0
2014-Oct-26 17:33N 46°30' W 001°47'0 0.0
2014-Oct-26 16:33N 46°30' W 001°47'0 0.0
2014-Oct-26 15:33N 46°30' W 001°47'0 0.0
2014-Oct-26 14:33N 46°30' W 001°47'0 0.0
2014-Oct-26 13:33N 46°30' W 001°47'1 1.5
2014-Oct-26 12:33N 46°28' W 001°47'9 9.3
2014-Oct-26 11:33N 46°19' W 001°51'4 4.1
2014-Oct-26 10:33N 46°15' W 001°53'1 1.0
2014-Oct-26 09:34N 46°14' W 001°53'0 0.1
2014-Oct-26 08:26N 46°15' W 001°53'1 1.0
2014-Oct-26 07:33N 46°15' W 001°53'2 1.9
2014-Oct-26 06:33N 46°14' W 001°52'2 2.1
2014-Oct-26 05:33N 46°16' W 001°53'1 1.5
2014-Oct-26 04:33N 46°14' W 001°52'1 1.1
2014-Oct-26 03:33N 46°15' W 001°52'0 0.3
2014-Oct-26 02:33N 46°15' W 001°52'3 2.5
2014-Oct-26 01:33N 46°18' W 001°50'8 8.5
2014-Oct-26 00:33N 46°26' W 001°48'4 4.0
2014-Oct-25 23:33N 46°30' W 001°47'0 0.0
2014-Oct-25 22:33N 46°30' W 001°47'0 0.0
2014-Oct-25 21:33N 46°30' W 001°47'0 0.0
2014-Oct-25 20:33N 46°30' W 001°47'0 0.0
2014-Oct-25 19:33N 46°30' W 001°47'0 0.0
2014-Oct-25 18:33N 46°30' W 001°47'0 0.0
2014-Oct-25 17:33N 46°30' W 001°47'0 0.0
2014-Oct-25 16:33N 46°30' W 001°47'0 0.0
2014-Oct-25 15:33N 46°30' W 001°47'0 0.0
2014-Oct-25 14:33N 46°30' W 001°47'0 0.0
2014-Oct-25 13:33N 46°30' W 001°47'0 0.0
2014-Oct-25 12:33N 46°30' W 001°47'0 0.0
2014-Oct-25 11:33N 46°30' W 001°47'0 0.0
2014-Oct-25 10:33N 46°30' W 001°47'7 6.6
2014-Oct-25 09:33N 46°23' W 001°49'9 8.8
2014-Oct-25 08:33N 46°15' W 001°51'1 1.1
2014-Oct-25 07:33N 46°15' W 001°53'3 2.8
2014-Oct-25 06:33N 46°12' W 001°52'2 1.9
2014-Oct-25 05:29N 46°14' W 001°52'0 0.5
2014-Oct-25 04:33N 46°14' W 001°52'1 0.8
2014-Oct-25 03:33N 46°13' W 001°52'1 0.9
2014-Oct-25 02:33N 46°14' W 001°52'1 0.6
2014-Oct-25 01:33N 46°15' W 001°52'2 1.9
2014-Oct-25 00:33N 46°13' W 001°50'2 2.0
2014-Oct-24 23:34N 46°15' W 001°52'1 0.8
2014-Oct-24 22:33N 46°15' W 001°53'0 0.1
2014-Oct-24 21:33N 46°15' W 001°53'0 0.0
2014-Oct-24 17:30N 46°15' W 001°53'0 0.0
2014-Oct-24 16:33N 46°15' W 001°53'0 0.0
2014-Oct-24 15:29N 46°15' W 001°53'0 0.0
2014-Oct-24 14:22N 46°15' W 001°53'0 0.0
2014-Oct-24 13:33N 46°15' W 001°53'0 0.0
2014-Oct-24 12:33N 46°15' W 001°53'0 0.2
2014-Oct-24 11:32N 46°15' W 001°53'2 2.6
2014-Oct-24 10:33N 46°13' W 001°50'2 1.8
2014-Oct-24 09:33N 46°14' W 001°52'2 2.0
2014-Oct-24 08:32N 46°16' W 001°53'1 0.3
2014-Oct-24 06:33N 46°16' W 001°54'1 1.2
2014-Oct-24 05:30N 46°15' W 001°53'2 1.9
2014-Oct-24 04:33N 46°16' W 001°54'2 2.1
2014-Oct-24 03:33N 46°15' W 001°52'1 0.8
2014-Oct-24 02:32N 46°15' W 001°53'5 4.8
2014-Oct-24 01:33N 46°20' W 001°51'8 8.4
2014-Oct-24 00:33N 46°28' W 001°47'2 1.9
2014-Oct-23 23:33N 46°30' W 001°47'0 0.0
2014-Oct-23 22:34N 46°30' W 001°47'0 0.0
2014-Oct-23 21:33N 46°30' W 001°47'0 0.0
2014-Oct-23 20:33N 46°30' W 001°47'0 0.0
2014-Oct-23 19:33N 46°30' W 001°47'0 0.0
2014-Oct-23 18:33N 46°30' W 001°47'0 0.0
2014-Oct-23 17:33N 46°30' W 001°47'0 0.0
2014-Oct-23 16:33N 46°30' W 001°47'0 0.0
2014-Oct-23 15:33N 46°30' W 001°47'0 0.0
2014-Oct-23 14:33N 46°30' W 001°47'0 0.0
2014-Oct-23 13:33N 46°30' W 001°47'0 0.0
2014-Oct-23 12:33N 46°30' W 001°47'4 4.2
2014-Oct-23 11:33N 46°26' W 001°49'10 9.8
2014-Oct-23 10:33N 46°16' W 001°53'1 0.9
2014-Oct-23 09:33N 46°15' W 001°53'2 1.5
2014-Oct-23 08:31N 46°16' W 001°55'1 1.0
2014-Oct-23 07:33N 46°16' W 001°54'2 1.9
2014-Oct-23 06:32N 46°15' W 001°52'2 1.6
2014-Oct-23 05:33N 46°16' W 001°53'0 0.1
2014-Oct-23 04:33N 46°16' W 001°53'1 1.0
2014-Oct-23 03:31N 46°15' W 001°53'0 0.3
2014-Oct-23 02:33N 46°15' W 001°53'0 0.3
2014-Oct-23 01:30N 46°15' W 001°53'0 0.4
2014-Oct-23 00:33N 46°15' W 001°53'1 0.6
2014-Oct-22 23:33N 46°14' W 001°53'0 0.0
2014-Oct-22 22:34N 46°14' W 001°53'0 0.0
2014-Oct-22 21:31N 46°14' W 001°53'0 0.2
2014-Oct-22 20:33N 46°14' W 001°53'0 0.0
2014-Oct-22 19:33N 46°14' W 001°53'0 0.0
2014-Oct-22 18:33N 46°14' W 001°53'0 0.1
2014-Oct-22 17:19N 46°14' W 001°53'0 0.0
2014-Oct-22 15:16N 46°14' W 001°53'0 0.0
2014-Oct-22 14:33N 46°14' W 001°53'0 0.0
2014-Oct-22 13:33N 46°14' W 001°53'2 2.2
2014-Oct-22 12:33N 46°15' W 001°55'2 2.0
2014-Oct-22 11:33N 46°14' W 001°53'1 0.7
2014-Oct-22 10:32N 46°15' W 001°53'2 1.9
2014-Oct-22 09:33N 46°17' W 001°55'2 2.0
2014-Oct-22 08:33N 46°15' W 001°53'1 0.8
2014-Oct-22 07:31N 46°16' W 001°54'1 0.9
2014-Oct-22 06:33N 46°17' W 001°54'1 1.2
2014-Oct-22 05:30N 46°15' W 001°53'1 1.3
2014-Oct-22 04:33N 46°16' W 001°54'2 1.9
2014-Oct-22 03:33N 46°15' W 001°52'1 1.4
2014-Oct-22 02:33N 46°16' W 001°54'7 6.8
2014-Oct-22 01:33N 46°22' W 001°51'8 7.8
2014-Oct-22 00:33N 46°30' W 001°47'0 0.1
2014-Oct-21 23:33N 46°30' W 001°47'0 0.0
2014-Oct-21 22:33N 46°30' W 001°47'0 0.0
2014-Oct-21 21:33N 46°30' W 001°47'0 0.0
2014-Oct-21 20:33N 46°30' W 001°47'0 0.0
2014-Oct-21 19:33N 46°30' W 001°47'0 0.0
2014-Oct-21 18:33N 46°30' W 001°47'  
Track history (hours):
 
Tides and Currents Weather Stations Pressure Air Temp Water Temp Dewpoint Dewpoint Depression Visibility Wind Speed Wind Dir Waves Ship Positions

F/V Fleur Des Vagues

Last reported at 2014-Oct-31 17:33 UTC. Time now 2014-Oct-31 17:58 UTC.
Position N 46°30' W 001°47'.

Length 16 m.

Type: Fishing. MMSI: 227893000.

Date/timePositionNaut miles runAvg speedWind from/ knotsBaromVisibWave heightAir tempDewpointWater temp
2014-Oct-31 17:33N 46°30' W 001°47'0 0.0
2014-Oct-31 16:33N 46°30' W 001°47'0 0.0
2014-Oct-31 15:34N 46°30' W 001°47'0 0.0
2014-Oct-31 14:33N 46°30' W 001°47'0 0.0
2014-Oct-31 13:33N 46°30' W 001°47'0 0.0
2014-Oct-31 12:33N 46°30' W 001°47'1 0.9
2014-Oct-31 11:34N 46°29' W 001°47'9 8.9
2014-Oct-31 10:33N 46°21' W 001°54'2 2.1
2014-Oct-31 09:33N 46°19' W 001°54'2 1.6
2014-Oct-31 08:34N 46°19' W 001°52'2 2.4
2014-Oct-31 07:32N 46°21' W 001°54'1 1.3
2014-Oct-31 06:33N 46°20' W 001°54'1 0.8
2014-Oct-31 05:31N 46°20' W 001°54'0 0.2
2014-Oct-31 04:33N 46°20' W 001°54'1 0.7
2014-Oct-31 03:33N 46°20' W 001°54'3 3.3
2014-Oct-31 02:33N 46°23' W 001°53'8 8.1
2014-Oct-31 01:33N 46°30' W 001°48'0 0.2
2014-Oct-31 00:33N 46°30' W 001°47'0 0.0
2014-Oct-30 23:33N 46°30' W 001°47'0 0.0
2014-Oct-30 22:33N 46°30' W 001°47'0 0.0
2014-Oct-30 21:33N 46°30' W 001°47'0 0.0
2014-Oct-30 20:33N 46°30' W 001°47'0 0.0
2014-Oct-30 19:33N 46°30' W 001°47'0 0.0
2014-Oct-30 18:33N 46°30' W 001°47'0 0.0
2014-Oct-30 17:33N 46°30' W 001°47'0 0.0
2014-Oct-30 16:33N 46°30' W 001°47'0 0.0
2014-Oct-30 15:33N 46°30' W 001°47'0 0.0
2014-Oct-30 14:33N 46°30' W 001°47'0 0.0
2014-Oct-30 13:33N 46°30' W 001°47'4 3.5
2014-Oct-30 12:33N 46°27' W 001°49'8 7.9
2014-Oct-30 11:34N 46°19' W 001°54'2 1.6
2014-Oct-30 10:33N 46°21' W 001°54'3 2.8
2014-Oct-30 09:33N 46°19' W 001°51'2 1.7
2014-Oct-30 08:33N 46°21' W 001°53'2 2.4
2014-Oct-30 07:33N 46°18' W 001°53'2 1.6
2014-Oct-30 06:33N 46°20' W 001°54'1 1.2
2014-Oct-30 05:33N 46°19' W 001°53'1 0.7
2014-Oct-30 04:31N 46°18' W 001°52'2 1.7
2014-Oct-30 03:33N 46°19' W 001°54'1 1.3
2014-Oct-30 02:33N 46°18' W 001°53'8 8.2
2014-Oct-30 01:33N 46°26' W 001°49'4 3.9
2014-Oct-30 00:33N 46°30' W 001°47'0 0.0
2014-Oct-29 23:34N 46°30' W 001°47'0 0.0
2014-Oct-29 22:34N 46°30' W 001°47'0 0.0
2014-Oct-29 21:34N 46°30' W 001°47'0 0.0
2014-Oct-29 20:33N 46°30' W 001°47'0 0.0
2014-Oct-29 19:33N 46°30' W 001°47'0 0.0
2014-Oct-29 18:33N 46°30' W 001°47'0 0.0
2014-Oct-29 17:33N 46°30' W 001°47'0 0.0
2014-Oct-29 16:33N 46°30' W 001°47'0 0.0
2014-Oct-29 15:33N 46°30' W 001°47'0 0.0
2014-Oct-29 14:33N 46°30' W 001°47'2 1.9
2014-Oct-29 13:33N 46°28' W 001°48'9 9.3
2014-Oct-29 12:33N 46°19' W 001°52'1 1.3
2014-Oct-29 11:33N 46°20' W 001°53'2 1.9
2014-Oct-29 10:33N 46°21' W 001°51'1 0.6
2014-Oct-29 09:32N 46°21' W 001°51'1 0.9
2014-Oct-29 08:33N 46°21' W 001°52'2 2.0
2014-Oct-29 07:33N 46°19' W 001°51'2 2.0
2014-Oct-29 06:34N 46°17' W 001°49'0 0.3
2014-Oct-29 05:33N 46°17' W 001°50'2 2.0
2014-Oct-29 04:33N 46°19' W 001°51'2 1.9
2014-Oct-29 03:33N 46°21' W 001°52'0 0.3
2014-Oct-29 02:33N 46°21' W 001°51'6 5.7
2014-Oct-29 01:33N 46°26' W 001°48'4 3.6
2014-Oct-29 00:33N 46°30' W 001°47'0 0.0
2014-Oct-28 23:33N 46°30' W 001°47'0 0.0
2014-Oct-28 22:33N 46°30' W 001°47'0 0.0
2014-Oct-28 21:33N 46°30' W 001°47'0 0.0
2014-Oct-28 20:33N 46°30' W 001°47'0 0.0
2014-Oct-28 19:33N 46°30' W 001°47'0 0.0
2014-Oct-28 18:33N 46°30' W 001°47'0 0.0
2014-Oct-28 17:33N 46°30' W 001°47'0 0.0
2014-Oct-28 16:33N 46°30' W 001°47'0 0.0
2014-Oct-28 15:33N 46°30' W 001°47'0 0.0
2014-Oct-28 14:33N 46°30' W 001°47'0 0.0
2014-Oct-28 13:33N 46°30' W 001°47'2 1.6
2014-Oct-28 12:33N 46°28' W 001°47'8 8.3
2014-Oct-28 11:34N 46°21' W 001°51'1 1.4
2014-Oct-28 10:33N 46°19' W 001°51'2 2.5
2014-Oct-28 09:32N 46°18' W 001°54'1 1.3
2014-Oct-28 08:34N 46°19' W 001°55'1 0.5
2014-Oct-28 07:32N 46°19' W 001°55'0 0.2
2014-Oct-28 06:33N 46°19' W 001°55'1 1.4
2014-Oct-28 05:33N 46°17' W 001°56'0 0.3
2014-Oct-28 04:33N 46°18' W 001°56'0 0.2
2014-Oct-28 03:33N 46°18' W 001°56'1 1.0
2014-Oct-28 02:33N 46°18' W 001°55'9 8.9
2014-Oct-28 01:33N 46°26' W 001°49'4 4.0
2014-Oct-28 00:33N 46°30' W 001°47'0 0.0
2014-Oct-27 23:33N 46°30' W 001°47'0 0.0
2014-Oct-27 22:33N 46°30' W 001°47'0 0.0
2014-Oct-27 21:33N 46°30' W 001°47'0 0.0
2014-Oct-27 20:33N 46°30' W 001°47'0 0.0
2014-Oct-27 19:33N 46°30' W 001°47'0 0.0
2014-Oct-27 18:34N 46°30' W 001°47'0 0.0
2014-Oct-27 17:33N 46°30' W 001°47'0 0.0
2014-Oct-27 16:34N 46°30' W 001°47'0 0.0
2014-Oct-27 15:34N 46°30' W 001°47'0 0.0
2014-Oct-27 14:33N 46°30' W 001°47'5 4.8
2014-Oct-27 13:33N 46°25' W 001°49'7 6.8
2014-Oct-27 12:30N 46°20' W 001°56'2 1.6
2014-Oct-27 11:28N 46°18' W 001°56'3 3.2
2014-Oct-27 10:33N 46°15' W 001°55'2 1.8
2014-Oct-27 09:33N 46°15' W 001°52'0 0.2
2014-Oct-27 07:33N 46°15' W 001°53'2 1.7
2014-Oct-27 06:34N 46°14' W 001°51'2 1.9
2014-Oct-27 05:33N 46°15' W 001°53'1 1.0
2014-Oct-27 04:33N 46°15' W 001°52'0 0.4
2014-Oct-27 03:32N 46°15' W 001°52'2 2.2
2014-Oct-27 02:33N 46°17' W 001°52'9 8.7
2014-Oct-27 01:33N 46°25' W 001°48'4 4.5
2014-Oct-27 00:34N 46°30' W 001°47'0 0.0
2014-Oct-26 23:33N 46°30' W 001°47'0 0.0
2014-Oct-26 22:34N 46°30' W 001°47'0 0.0
2014-Oct-26 21:33N 46°30' W 001°47'0 0.0
2014-Oct-26 20:33N 46°30' W 001°47'0 0.0
2014-Oct-26 19:34N 46°30' W 001°47'0 0.0
2014-Oct-26 18:33N 46°30' W 001°47'0 0.0
2014-Oct-26 17:33N 46°30' W 001°47'0 0.0
2014-Oct-26 16:33N 46°30' W 001°47'0 0.0
2014-Oct-26 15:33N 46°30' W 001°47'0 0.0
2014-Oct-26 14:33N 46°30' W 001°47'0 0.0
2014-Oct-26 13:33N 46°30' W 001°47'1 1.5
2014-Oct-26 12:33N 46°28' W 001°47'9 9.3
2014-Oct-26 11:33N 46°19' W 001°51'4 4.1
2014-Oct-26 10:33N 46°15' W 001°53'1 1.0
2014-Oct-26 09:34N 46°14' W 001°53'0 0.1
2014-Oct-26 08:26N 46°15' W 001°53'1 1.0
2014-Oct-26 07:33N 46°15' W 001°53'2 1.9
2014-Oct-26 06:33N 46°14' W 001°52'2 2.1
2014-Oct-26 05:33N 46°16' W 001°53'1 1.5
2014-Oct-26 04:33N 46°14' W 001°52'1 1.1
2014-Oct-26 03:33N 46°15' W 001°52'0 0.3
2014-Oct-26 02:33N 46°15' W 001°52'3 2.5
2014-Oct-26 01:33N 46°18' W 001°50'8 8.5
2014-Oct-26 00:33N 46°26' W 001°48'4 4.0
2014-Oct-25 23:33N 46°30' W 001°47'0 0.0
2014-Oct-25 22:33N 46°30' W 001°47'0 0.0
2014-Oct-25 21:33N 46°30' W 001°47'0 0.0
2014-Oct-25 20:33N 46°30' W 001°47'0 0.0
2014-Oct-25 19:33N 46°30' W 001°47'0 0.0
2014-Oct-25 18:33N 46°30' W 001°47'0 0.0
2014-Oct-25 17:33N 46°30' W 001°47'0 0.0
2014-Oct-25 16:33N 46°30' W 001°47'0 0.0
2014-Oct-25 15:33N 46°30' W 001°47'0 0.0
2014-Oct-25 14:33N 46°30' W 001°47'0 0.0
2014-Oct-25 13:33N 46°30' W 001°47'0 0.0
2014-Oct-25 12:33N 46°30' W 001°47'0 0.0
2014-Oct-25 11:33N 46°30' W 001°47'0 0.0
2014-Oct-25 10:33N 46°30' W 001°47'7 6.6
2014-Oct-25 09:33N 46°23' W 001°49'9 8.8
2014-Oct-25 08:33N 46°15' W 001°51'1 1.1
2014-Oct-25 07:33N 46°15' W 001°53'3 2.8
2014-Oct-25 06:33N 46°12' W 001°52'2 1.9
2014-Oct-25 05:29N 46°14' W 001°52'0 0.5
2014-Oct-25 04:33N 46°14' W 001°52'1 0.8
2014-Oct-25 03:33N 46°13' W 001°52'1 0.9
2014-Oct-25 02:33N 46°14' W 001°52'1 0.6
2014-Oct-25 01:33N 46°15' W 001°52'2 1.9
2014-Oct-25 00:33N 46°13' W 001°50'2 2.0
2014-Oct-24 23:34N 46°15' W 001°52'1 0.8
2014-Oct-24 22:33N 46°15' W 001°53'0 0.1
2014-Oct-24 21:33N 46°15' W 001°53'0 0.0
2014-Oct-24 17:30N 46°15' W 001°53'0 0.0
2014-Oct-24 16:33N 46°15' W 001°53'0 0.0
2014-Oct-24 15:29N 46°15' W 001°53'0 0.0
2014-Oct-24 14:22N 46°15' W 001°53'0 0.0
2014-Oct-24 13:33N 46°15' W 001°53'0 0.0
2014-Oct-24 12:33N 46°15' W 001°53'0 0.2
2014-Oct-24 11:32N 46°15' W 001°53'2 2.6
2014-Oct-24 10:33N 46°13' W 001°50'2 1.8
2014-Oct-24 09:33N 46°14' W 001°52'2 2.0
2014-Oct-24 08:32N 46°16' W 001°53'1 0.3
2014-Oct-24 06:33N 46°16' W 001°54'1 1.2
2014-Oct-24 05:30N 46°15' W 001°53'2 1.9
2014-Oct-24 04:33N 46°16' W 001°54'2 2.1
2014-Oct-24 03:33N 46°15' W 001°52'1 0.8
2014-Oct-24 02:32N 46°15' W 001°53'5 4.8
2014-Oct-24 01:33N 46°20' W 001°51'8 8.4
2014-Oct-24 00:33N 46°28' W 001°47'2 1.9
2014-Oct-23 23:33N 46°30' W 001°47'0 0.0
2014-Oct-23 22:34N 46°30' W 001°47'0 0.0
2014-Oct-23 21:33N 46°30' W 001°47'0 0.0
2014-Oct-23 20:33N 46°30' W 001°47'0 0.0
2014-Oct-23 19:33N 46°30' W 001°47'0 0.0
2014-Oct-23 18:33N 46°30' W 001°47'0 0.0
2014-Oct-23 17:33N 46°30' W 001°47'0 0.0
2014-Oct-23 16:33N 46°30' W 001°47'0 0.0
2014-Oct-23 15:33N 46°30' W 001°47'0 0.0
2014-Oct-23 14:33N 46°30' W 001°47'0 0.0
2014-Oct-23 13:33N 46°30' W 001°47'0 0.0
2014-Oct-23 12:33N 46°30' W 001°47'4 4.2
2014-Oct-23 11:33N 46°26' W 001°49'10 9.8
2014-Oct-23 10:33N 46°16' W 001°53'1 0.9
2014-Oct-23 09:33N 46°15' W 001°53'2 1.5
2014-Oct-23 08:31N 46°16' W 001°55'1 1.0
2014-Oct-23 07:33N 46°16' W 001°54'2 1.9
2014-Oct-23 06:32N 46°15' W 001°52'2 1.6
2014-Oct-23 05:33N 46°16' W 001°53'0 0.1
2014-Oct-23 04:33N 46°16' W 001°53'1 1.0
2014-Oct-23 03:31N 46°15' W 001°53'0 0.3
2014-Oct-23 02:33N 46°15' W 001°53'0 0.3
2014-Oct-23 01:30N 46°15' W 001°53'0 0.4
2014-Oct-23 00:33N 46°15' W 001°53'1 0.6
2014-Oct-22 23:33N 46°14' W 001°53'0 0.0
2014-Oct-22 22:34N 46°14' W 001°53'0 0.0
2014-Oct-22 21:31N 46°14' W 001°53'0 0.2
2014-Oct-22 20:33N 46°14' W 001°53'0 0.0
2014-Oct-22 19:33N 46°14' W 001°53'0 0.0
2014-Oct-22 18:33N 46°14' W 001°53'0 0.1
2014-Oct-22 17:19N 46°14' W 001°53'0 0.0
2014-Oct-22 15:16N 46°14' W 001°53'0 0.0
2014-Oct-22 14:33N 46°14' W 001°53'0 0.0
2014-Oct-22 13:33N 46°14' W 001°53'2 2.2
2014-Oct-22 12:33N 46°15' W 001°55'2 2.0
2014-Oct-22 11:33N 46°14' W 001°53'1 0.7
2014-Oct-22 10:32N 46°15' W 001°53'2 1.9
2014-Oct-22 09:33N 46°17' W 001°55'2 2.0
2014-Oct-22 08:33N 46°15' W 001°53'1 0.8
2014-Oct-22 07:31N 46°16' W 001°54'1 0.9
2014-Oct-22 06:33N 46°17' W 001°54'1 1.2
2014-Oct-22 05:30N 46°15' W 001°53'1 1.3
2014-Oct-22 04:33N 46°16' W 001°54'2 1.9
2014-Oct-22 03:33N 46°15' W 001°52'1 1.4
2014-Oct-22 02:33N 46°16' W 001°54'7 6.8
2014-Oct-22 01:33N 46°22' W 001°51'8 7.8
2014-Oct-22 00:33N 46°30' W 001°47'0 0.1
2014-Oct-21 23:33N 46°30' W 001°47'0 0.0
2014-Oct-21 22:33N 46°30' W 001°47'0 0.0
2014-Oct-21 21:33N 46°30' W 001°47'0 0.0
2014-Oct-21 20:33N 46°30' W 001°47'0 0.0
2014-Oct-21 19:33N 46°30' W 001°47'0 0.0
2014-Oct-21 18:33N 46°30' W 001°47'  

Dump ship's entire track history